createdAt,value
2018-03-22T00:02:26.397Z,74.80
2018-03-22T00:04:54.645Z,74.80
2018-03-22T00:07:23.645Z,74.30
2018-03-22T00:09:51.883Z,74.30
2018-03-22T00:12:20.130Z,74.10
2018-03-22T00:14:48.364Z,73.90
2018-03-22T00:17:16.615Z,74.00
2018-03-22T00:19:44.854Z,73.70
2018-03-22T00:22:25.086Z,74.10
2018-03-22T00:24:53.331Z,73.80
2018-03-22T00:27:22.337Z,73.90
2018-03-22T00:29:50.573Z,73.80
2018-03-22T00:32:18.818Z,73.70
2018-03-22T00:34:47.044Z,73.70
2018-03-22T00:37:16.045Z,74.00
2018-03-22T00:39:44.298Z,73.90
2018-03-22T00:42:12.524Z,74.10
2018-03-22T00:44:40.764Z,73.80
2018-03-22T00:47:10.238Z,73.90
2018-03-22T00:49:38.480Z,74.20
2018-03-22T00:52:06.712Z,74.10
2018-03-22T00:54:35.720Z,73.50
2018-03-22T00:57:03.950Z,73.50
2018-03-22T00:59:32.204Z,73.90
2018-03-22T01:02:00.428Z,73.50
2018-03-22T01:04:28.670Z,73.30
2018-03-22T01:06:56.905Z,73.50
2018-03-22T01:09:25.148Z,73.40
2018-03-22T01:11:53.386Z,72.70
2018-03-22T01:14:21.671Z,72.70
2018-03-22T01:16:49.857Z,72.70
2018-03-22T01:19:18.879Z,72.70
2018-03-22T01:21:47.105Z,72.70
2018-03-22T01:24:15.354Z,72.70
2018-03-22T01:26:43.585Z,72.70
2018-03-22T01:29:11.836Z,72.40
2018-03-22T01:31:40.824Z,73.30
2018-03-22T01:34:09.838Z,72.70
2018-03-22T01:36:38.074Z,72.70
2018-03-22T01:39:06.303Z,72.50
2018-03-22T01:41:34.553Z,72.30
2018-03-22T01:44:03.552Z,73.60
2018-03-22T01:46:31.802Z,73.50
2018-03-22T01:49:00.057Z,74.00
2018-03-22T01:51:28.281Z,74.90
2018-03-22T01:53:56.504Z,75.80
2018-03-22T01:56:24.752Z,76.30
2018-03-22T01:58:52.977Z,77.40
2018-03-22T02:01:21.985Z,79.00
2018-03-22T02:03:50.212Z,79.00
2018-03-22T02:06:18.452Z,79.50
2018-03-22T02:08:46.684Z,80.10
2018-03-22T02:11:14.922Z,80.60
2018-03-22T02:13:43.155Z,80.90
2018-03-22T02:16:11.399Z,81.30
2018-03-22T02:18:39.616Z,81.70
2018-03-22T02:21:07.856Z,81.90
2018-03-22T02:23:36.848Z,82.40
2018-03-22T02:26:05.857Z,82.70
2018-03-22T02:28:34.516Z,82.60
2018-03-22T02:31:02.757Z,83.00
2018-03-22T02:33:30.989Z,83.60
2018-03-22T02:35:59.316Z,84.10
2018-03-22T02:38:27.535Z,84.20
2018-03-22T02:40:55.791Z,84.80
2018-03-22T02:43:24.779Z,86.40
2018-03-22T02:45:53.792Z,87.50
2018-03-22T02:48:22.030Z,87.50
2018-03-22T02:50:50.257Z,88.10
2018-03-22T02:53:18.500Z,88.70
2018-03-22T02:55:47.504Z,89.40
2018-03-22T02:58:15.753Z,89.40
2018-03-22T03:00:43.980Z,89.50
2018-03-22T03:03:12.221Z,89.60
2018-03-22T03:05:41.209Z,90.00
2018-03-22T03:08:10.225Z,90.10
2018-03-22T03:10:38.456Z,90.10
2018-03-22T03:13:06.705Z,90.20
2018-03-22T03:15:34.928Z,90.10
2018-03-22T03:18:03.180Z,90.10
2018-03-22T03:20:32.178Z,89.90
2018-03-22T03:23:01.189Z,89.70
2018-03-22T03:25:29.416Z,89.70
2018-03-22T03:27:57.668Z,89.70
2018-03-22T03:30:25.978Z,89.30
2018-03-22T03:32:54.913Z,88.80
2018-03-22T03:35:23.136Z,88.80
2018-03-22T03:37:51.372Z,88.70
2018-03-22T03:40:19.595Z,88.40
2018-03-22T03:42:48.611Z,88.00
2018-03-22T03:45:16.836Z,87.90
2018-03-22T03:47:45.084Z,87.70
2018-03-22T03:50:13.317Z,87.80
2018-03-22T03:52:42.336Z,87.50
2018-03-22T03:55:11.291Z,87.40
2018-03-22T03:57:39.512Z,87.10
2018-03-22T04:00:07.765Z,87.40
2018-03-22T04:02:36.314Z,86.50
2018-03-22T04:05:04.531Z,86.60
2018-03-22T04:07:32.766Z,86.60
2018-03-22T04:10:01.012Z,86.70
2018-03-22T04:12:29.244Z,86.30
2018-03-22T04:14:57.496Z,86.20
2018-03-22T04:17:26.491Z,87.10
2018-03-22T04:19:55.496Z,87.20
2018-03-22T04:22:23.779Z,87.10
2018-03-22T04:24:52.056Z,87.40
2018-03-22T04:27:20.279Z,87.10
2018-03-22T04:29:48.529Z,87.80
2018-03-22T04:32:16.756Z,88.30
2018-03-22T04:34:45.763Z,89.00
2018-03-22T04:37:14.035Z,89.00
2018-03-22T04:39:42.276Z,89.30
2018-03-22T04:42:10.504Z,89.90
2018-03-22T04:44:38.752Z,90.00
2018-03-22T04:47:06.977Z,90.00
2018-03-22T04:49:35.215Z,90.10
2018-03-22T04:52:03.448Z,90.00
2018-03-22T04:54:32.455Z,89.90
2018-03-22T04:57:00.688Z,89.90
2018-03-22T04:59:28.926Z,89.90
2018-03-22T05:01:57.164Z,89.50
2018-03-22T05:04:26.284Z,89.20
2018-03-22T05:06:54.517Z,89.20
2018-03-22T05:09:22.733Z,89.20
2018-03-22T05:11:50.980Z,89.20
2018-03-22T05:14:19.972Z,89.30
2018-03-22T05:16:49.091Z,89.30
2018-03-22T05:19:17.317Z,89.20
2018-03-22T05:21:45.560Z,89.00
2018-03-22T05:24:13.792Z,89.00
2018-03-22T05:26:42.804Z,88.80
2018-03-22T05:29:11.036Z,88.70
2018-03-22T05:31:39.293Z,88.90
2018-03-22T05:34:07.514Z,89.10
2018-03-22T05:36:35.765Z,88.90
2018-03-22T05:39:04.764Z,89.40
2018-03-22T05:41:33.772Z,90.10
2018-03-22T05:44:01.999Z,90.10
2018-03-22T05:46:30.252Z,90.40
2018-03-22T05:48:58.485Z,90.70
2018-03-22T05:51:27.504Z,91.00
2018-03-22T05:53:55.732Z,91.00
2018-03-22T05:56:23.986Z,90.80
2018-03-22T05:58:52.205Z,90.90
2018-03-22T06:01:20.458Z,90.90
2018-03-22T06:03:49.451Z,91.10
2018-03-22T06:06:18.461Z,91.20
2018-03-22T06:08:46.732Z,91.20
2018-03-22T06:11:14.939Z,91.30
2018-03-22T06:13:43.503Z,91.40
2018-03-22T06:16:11.756Z,91.50
2018-03-22T06:18:40.753Z,91.60
2018-03-22T06:21:09.766Z,91.70
2018-03-22T06:23:37.991Z,91.70
2018-03-22T06:26:06.257Z,91.80
2018-03-22T06:28:34.484Z,91.90
2018-03-22T06:31:02.818Z,92.00
2018-03-22T06:33:31.393Z,92.00
2018-03-22T06:35:59.607Z,92.00
2018-03-22T06:38:27.845Z,92.00
2018-03-22T06:40:56.071Z,92.00
2018-03-22T06:43:24.356Z,92.30
2018-03-22T06:45:52.989Z,91.70
2018-03-22T06:48:22.147Z,91.90
2018-03-22T06:50:50.348Z,91.90
2018-03-22T06:53:19.360Z,92.00
2018-03-22T06:55:47.588Z,91.70
2018-03-22T06:58:15.831Z,91.70
2018-03-22T07:00:44.067Z,91.70
2018-03-22T07:03:13.082Z,91.80
2018-03-22T07:05:41.310Z,91.80
2018-03-22T07:08:09.555Z,91.90
2018-03-22T07:10:37.787Z,92.00
2018-03-22T07:13:06.800Z,91.80
2018-03-22T07:15:35.054Z,91.80
2018-03-22T07:18:04.087Z,91.90
2018-03-22T07:20:32.310Z,91.80
2018-03-22T07:23:01.319Z,91.70
2018-03-22T07:25:29.598Z,91.70
2018-03-22T07:27:57.785Z,91.80
2018-03-22T07:30:26.017Z,91.80
2018-03-22T07:32:55.045Z,91.60
2018-03-22T07:35:23.276Z,91.60
2018-03-22T07:37:51.495Z,91.70
2018-03-22T07:40:19.744Z,91.70
2018-03-22T07:42:53.745Z,91.70
2018-03-22T07:45:22.749Z,91.60
2018-03-22T07:47:50.980Z,91.60
2018-03-22T07:50:19.227Z,91.60
2018-03-22T07:52:47.448Z,91.70
2018-03-22T07:55:16.464Z,91.40
2018-03-22T07:57:44.698Z,91.40
2018-03-22T08:00:12.950Z,91.20
2018-03-22T08:02:41.180Z,91.30
2018-03-22T08:05:10.188Z,91.10
2018-03-22T08:07:38.416Z,91.10
2018-03-22T08:10:06.665Z,91.10
2018-03-22T08:12:34.887Z,91.10
2018-03-22T08:15:03.908Z,91.00
2018-03-22T08:17:32.140Z,91.00
2018-03-22T08:20:01.195Z,91.10
2018-03-22T08:22:29.424Z,91.10
2018-03-22T08:24:57.665Z,90.80
2018-03-22T08:27:25.888Z,91.10
2018-03-22T08:29:54.140Z,91.00
2018-03-22T08:32:23.131Z,90.90
2018-03-22T08:34:52.144Z,91.00
2018-03-22T08:37:20.371Z,91.00
2018-03-22T08:39:48.613Z,91.10
2018-03-22T08:42:16.864Z,91.20
2018-03-22T08:44:45.116Z,90.90
2018-03-22T08:47:14.112Z,91.00
2018-03-22T08:49:42.365Z,91.30
2018-03-22T08:52:10.612Z,90.90
2018-03-22T08:54:38.848Z,91.00
2018-03-22T08:57:07.088Z,90.90
2018-03-22T08:59:36.086Z,91.10
2018-03-22T09:02:05.097Z,90.80
2018-03-22T09:04:33.330Z,90.70
2018-03-22T09:07:01.571Z,90.60
2018-03-22T09:09:29.801Z,90.70
2018-03-22T09:11:58.814Z,90.60
2018-03-22T09:14:27.038Z,90.60
2018-03-22T09:16:56.805Z,90.60
2018-03-22T09:19:25.025Z,90.60
2018-03-22T09:21:54.799Z,90.80
2018-03-22T09:24:23.056Z,90.80
2018-03-22T09:26:57.037Z,90.90
2018-03-22T09:29:26.044Z,91.10
2018-03-22T09:31:54.289Z,91.10
2018-03-22T09:34:22.518Z,91.40
2018-03-22T09:36:50.760Z,91.10
2018-03-22T09:39:19.754Z,90.80
2018-03-22T09:41:48.774Z,91.00
2018-03-22T09:44:16.992Z,91.00
2018-03-22T09:46:45.236Z,90.90
2018-03-22T09:49:13.460Z,90.90
2018-03-22T09:51:42.472Z,90.70
2018-03-22T09:54:10.747Z,90.70
2018-03-22T09:56:38.992Z,90.90
2018-03-22T09:59:07.984Z,90.70
2018-03-22T10:01:36.991Z,90.70
2018-03-22T10:04:05.216Z,90.70
2018-03-22T10:06:33.464Z,90.80
2018-03-22T10:09:01.723Z,91.00
2018-03-22T10:11:29.943Z,90.90
2018-03-22T10:13:58.188Z,90.90
2018-03-22T10:16:26.416Z,91.10
2018-03-22T10:18:55.436Z,91.30
2018-03-22T10:21:23.673Z,91.20
2018-03-22T10:23:51.924Z,91.10
2018-03-22T10:26:20.153Z,90.90
2018-03-22T10:28:48.451Z,91.00
2018-03-22T10:31:16.648Z,91.00
2018-03-22T10:33:44.900Z,91.00
2018-03-22T10:36:13.119Z,91.00
2018-03-22T10:38:42.143Z,90.80
2018-03-22T10:41:10.416Z,90.70
2018-03-22T10:43:38.664Z,90.70
2018-03-22T10:46:07.652Z,90.60
2018-03-22T10:48:36.661Z,90.60
2018-03-22T10:51:04.888Z,90.60
2018-03-22T10:53:33.131Z,90.60
2018-03-22T10:56:01.364Z,90.60
2018-03-22T10:58:30.371Z,90.50
2018-03-22T11:01:04.276Z,90.50
2018-03-22T11:06:35.310Z,90.10
2018-03-22T11:09:03.525Z,90.10
2018-03-22T11:11:31.753Z,90.20
2018-03-22T11:14:00.001Z,90.10
2018-03-22T11:16:28.227Z,90.00
2018-03-22T11:18:56.489Z,89.50
2018-03-22T11:21:25.480Z,89.60
2018-03-22T11:23:54.480Z,89.50
2018-03-22T11:26:23.492Z,89.70
2018-03-22T11:28:51.721Z,89.60
2018-03-22T11:31:19.957Z,89.60
2018-03-22T11:33:48.184Z,90.10
2018-03-22T11:36:17.198Z,89.80
2018-03-22T11:38:45.426Z,89.70
2018-03-22T11:41:13.661Z,89.70
2018-03-22T11:43:41.893Z,89.20
2018-03-22T11:46:10.907Z,89.80
2018-03-22T11:48:39.142Z,89.80
2018-03-22T11:51:07.384Z,89.60
2018-03-22T11:53:35.611Z,89.80
2018-03-22T11:56:04.624Z,89.90
2018-03-22T11:58:32.862Z,89.90
2018-03-22T12:01:01.100Z,89.40
2018-03-22T12:03:29.338Z,89.10
2018-03-22T12:05:58.345Z,89.40
2018-03-22T12:08:26.595Z,89.40
2018-03-22T12:10:54.819Z,89.70
2018-03-22T12:13:23.048Z,90.20
2018-03-22T12:15:51.301Z,89.60
2018-03-22T12:18:20.303Z,90.00
2018-03-22T12:20:49.336Z,89.30
2018-03-22T12:23:18.480Z,89.20
2018-03-22T12:25:47.501Z,89.30
2018-03-22T12:28:15.724Z,89.20
2018-03-22T12:30:44.058Z,89.10
2018-03-22T12:33:12.297Z,89.00
2018-03-22T12:35:41.288Z,89.70
2018-03-22T12:38:09.576Z,89.70
2018-03-22T12:40:38.625Z,89.60
2018-03-22T12:43:06.900Z,89.70
2018-03-22T12:45:35.193Z,90.10
2018-03-22T12:48:03.409Z,90.20
2018-03-22T12:50:31.645Z,90.40
2018-03-22T12:52:59.886Z,90.40
2018-03-22T12:55:28.132Z,90.70
2018-03-22T12:57:56.379Z,90.90
2018-03-22T13:00:25.385Z,91.30
2018-03-22T13:02:53.639Z,91.30
2018-03-22T13:05:21.861Z,91.20
2018-03-22T13:07:50.112Z,91.50
2018-03-22T13:10:18.335Z,91.70
2018-03-22T13:12:46.657Z,91.90
2018-03-22T13:15:14.833Z,91.90
2018-03-22T13:17:43.079Z,92.40
2018-03-22T13:20:12.081Z,92.30
2018-03-22T13:22:41.099Z,92.50
2018-03-22T13:25:09.321Z,92.50
2018-03-22T13:27:37.568Z,92.50
2018-03-22T13:30:05.805Z,92.70
2018-03-22T13:32:34.052Z,92.60
2018-03-22T13:35:03.049Z,92.70
2018-03-22T13:37:32.057Z,92.90
2018-03-22T13:40:00.347Z,92.90
2018-03-22T13:42:28.624Z,92.90
2018-03-22T13:44:56.855Z,93.00
2018-03-22T13:47:25.108Z,92.90
2018-03-22T13:49:53.336Z,93.00
2018-03-22T13:52:21.567Z,93.20
2018-03-22T13:54:49.804Z,93.10
2018-03-22T13:57:18.031Z,93.20
2018-03-22T13:59:47.040Z,93.20
2018-03-22T14:02:15.286Z,93.20
2018-03-22T14:04:43.525Z,93.40
2018-03-22T14:07:11.758Z,93.20
2018-03-22T14:09:40.765Z,93.30
2018-03-22T14:12:08.990Z,93.30
2018-03-22T14:14:37.241Z,93.30
2018-03-22T14:17:05.473Z,93.50
2018-03-22T14:19:33.724Z,93.50
2018-03-22T14:22:01.948Z,93.50
2018-03-22T14:24:30.199Z,93.80
2018-03-22T14:26:58.433Z,93.80
2018-03-22T14:29:26.692Z,93.80
2018-03-22T14:31:55.736Z,93.60
2018-03-22T14:34:23.985Z,93.80
2018-03-22T14:36:52.208Z,93.80
2018-03-22T14:39:20.460Z,93.90
2018-03-22T14:41:48.684Z,94.10
2018-03-22T14:44:16.924Z,94.00
2018-03-22T14:46:45.153Z,93.80
2018-03-22T14:49:13.500Z,93.80
2018-03-22T14:51:41.728Z,93.60
2018-03-22T14:54:09.989Z,93.20
2018-03-22T14:56:38.973Z,92.70
2018-03-22T14:59:07.958Z,92.10
2018-03-22T15:01:36.185Z,92.10
2018-03-22T15:04:04.408Z,92.20
2018-03-22T15:06:32.645Z,91.80
2018-03-22T15:09:00.862Z,91.60
2018-03-22T15:11:29.859Z,91.40
2018-03-22T15:13:58.844Z,91.20
2018-03-22T15:16:27.848Z,91.60
2018-03-22T15:18:56.832Z,91.60
2018-03-22T15:21:25.851Z,91.40
2018-03-22T15:23:54.068Z,91.40
2018-03-22T15:26:22.337Z,91.50
2018-03-22T15:28:50.518Z,91.50
2018-03-22T15:31:18.760Z,91.50
2018-03-22T15:33:46.976Z,91.50
2018-03-22T15:36:15.213Z,91.50
2018-03-22T15:38:43.431Z,91.20
2018-03-22T15:41:11.655Z,91.10
2018-03-22T15:43:39.878Z,91.20
2018-03-22T15:46:08.876Z,90.80
2018-03-22T15:48:37.860Z,90.90
2018-03-22T15:51:06.092Z,90.90
2018-03-22T15:53:34.314Z,91.00
2018-03-22T15:56:03.308Z,91.00
2018-03-22T15:58:32.312Z,90.80
2018-03-22T16:01:01.315Z,90.80
2018-03-22T16:03:29.540Z,90.50
2018-03-22T16:05:57.780Z,90.40
2018-03-22T16:08:25.995Z,90.30
2018-03-22T16:10:54.336Z,90.30
2018-03-22T16:19:31.348Z,90.30
2018-03-22T16:25:38.073Z,90.40
2018-03-22T16:28:10.242Z,90.50
2018-03-22T16:33:43.504Z,90.50
2018-03-22T16:36:40.175Z,90.50
2018-03-22T16:42:48.428Z,90.60
2018-03-22T16:51:08.880Z,90.40
2018-03-22T16:53:37.122Z,90.50
2018-03-22T16:56:05.352Z,90.50
2018-03-22T16:58:33.593Z,90.40
2018-03-22T17:01:01.820Z,90.20
2018-03-22T17:03:30.160Z,90.40
2018-03-22T17:06:02.254Z,90.60
2018-03-22T17:08:30.714Z,90.30
2018-03-22T17:10:59.433Z,90.40
2018-03-22T17:13:27.760Z,90.60
2018-03-22T17:15:55.975Z,90.40
2018-03-22T17:18:24.261Z,90.30
2018-03-22T17:20:52.531Z,90.30
2018-03-22T17:23:20.756Z,90.30
2018-03-22T17:25:48.982Z,90.40
2018-03-22T17:28:18.724Z,90.30
2018-03-22T17:30:47.716Z,90.30
2018-03-22T17:33:16.719Z,90.30
2018-03-22T17:35:44.953Z,90.30
2018-03-22T17:38:13.193Z,90.30
2018-03-22T17:40:41.417Z,90.30
2018-03-22T17:43:10.418Z,90.10
2018-03-22T17:45:39.409Z,90.30
2018-03-22T17:48:08.424Z,90.30
2018-03-22T17:50:36.648Z,90.30
2018-03-22T17:53:04.956Z,90.30
2018-03-22T17:55:33.203Z,90.30
2018-03-22T17:58:01.488Z,90.40
2018-03-22T18:00:30.529Z,90.50
2018-03-22T18:02:58.870Z,90.50
2018-03-22T18:05:28.016Z,90.60
2018-03-22T18:07:56.234Z,90.60
2018-03-22T18:10:25.235Z,90.70
2018-03-22T18:12:53.639Z,90.70
2018-03-22T18:15:21.869Z,90.60
2018-03-22T18:17:50.847Z,90.80
2018-03-22T18:20:19.146Z,90.80
2018-03-22T18:22:47.436Z,91.00
2018-03-22T18:25:16.512Z,91.00
2018-03-22T18:27:44.768Z,91.10
2018-03-22T18:30:13.772Z,91.50
2018-03-22T18:32:42.766Z,91.30
2018-03-22T18:35:11.876Z,91.20
2018-03-22T18:37:40.092Z,91.20
2018-03-22T18:40:08.328Z,91.40
2018-03-22T18:42:36.550Z,91.60
2018-03-22T18:45:04.825Z,91.70
2018-03-22T18:47:33.041Z,92.00
2018-03-22T18:50:01.284Z,92.10
2018-03-22T18:52:29.504Z,92.20
2018-03-22T18:54:57.755Z,92.80
2018-03-22T18:57:26.004Z,92.70
2018-03-22T18:59:54.253Z,92.90
2018-03-22T19:02:22.501Z,93.00
2018-03-22T19:04:50.730Z,93.00
2018-03-22T19:07:20.092Z,93.20
2018-03-22T19:09:48.276Z,93.20
2018-03-22T19:12:16.525Z,93.20
2018-03-22T19:14:44.752Z,93.30
2018-03-22T19:17:13.756Z,93.40
2018-03-22T19:19:42.752Z,93.30
2018-03-22T19:22:10.994Z,93.30
2018-03-22T19:24:39.226Z,93.30
2018-03-22T19:27:07.469Z,93.30
2018-03-22T19:29:36.465Z,93.30
2018-03-22T19:32:05.564Z,93.30
2018-03-22T19:34:33.795Z,93.70
2018-03-22T19:37:02.048Z,93.30
2018-03-22T19:39:30.287Z,93.10
2018-03-22T19:41:58.523Z,93.10
2018-03-22T19:44:26.793Z,93.00
2018-03-22T19:46:55.000Z,93.10
2018-03-22T19:49:23.472Z,93.10
2018-03-22T19:51:52.479Z,93.20
2018-03-22T19:54:20.710Z,93.20
2018-03-22T19:56:49.203Z,93.20
2018-03-22T19:59:18.200Z,93.20
2018-03-22T20:01:47.211Z,93.10
2018-03-22T20:04:15.436Z,93.10
2018-03-22T20:06:43.687Z,93.00
2018-03-22T20:09:11.916Z,92.90
2018-03-22T20:11:40.916Z,92.40
2018-03-22T20:14:09.924Z,92.10
2018-03-22T20:16:38.241Z,92.20
2018-03-22T20:19:06.444Z,92.10
2018-03-22T20:21:35.443Z,92.40
2018-03-22T20:24:04.465Z,92.50
2018-03-22T20:26:32.697Z,92.50
2018-03-22T20:29:00.988Z,92.60
2018-03-22T20:31:30.684Z,92.50
2018-03-22T20:33:59.697Z,92.60
2018-03-22T20:36:27.921Z,92.60
2018-03-22T20:38:56.779Z,92.60
2018-03-22T20:41:25.000Z,92.60
2018-03-22T20:43:53.249Z,92.60
2018-03-22T20:46:21.472Z,92.50
2018-03-22T20:48:49.713Z,92.40
2018-03-22T20:51:17.944Z,92.40
2018-03-22T20:53:46.201Z,92.30
2018-03-22T20:56:14.422Z,92.30
2018-03-22T20:58:42.660Z,92.10
2018-03-22T21:01:10.885Z,91.10
2018-03-22T21:03:39.115Z,91.10
2018-03-22T21:06:07.337Z,91.20
2018-03-22T21:08:35.576Z,91.20
2018-03-22T21:11:03.799Z,91.00
2018-03-22T21:13:32.797Z,90.90
2018-03-22T21:16:01.785Z,91.20
2018-03-22T21:18:30.787Z,91.30
2018-03-22T21:20:59.009Z,91.40
2018-03-22T21:23:27.256Z,91.50
2018-03-22T21:25:55.485Z,91.70
2018-03-22T21:28:23.703Z,91.80
2018-03-22T21:30:51.945Z,92.10
2018-03-22T21:33:20.945Z,91.60
2018-03-22T21:35:49.940Z,91.70
2018-03-22T21:38:18.183Z,91.70
2018-03-22T21:40:46.416Z,91.50
2018-03-22T21:43:14.628Z,91.40
2018-03-22T21:45:42.871Z,91.40
2018-03-22T21:48:11.097Z,91.40
2018-03-22T21:50:48.935Z,90.60
2018-03-22T21:53:17.160Z,90.60
2018-03-22T21:55:46.162Z,89.10
2018-03-22T21:58:15.144Z,86.70
2018-03-22T22:00:44.148Z,86.00
2018-03-22T22:03:12.363Z,86.00
2018-03-22T22:05:40.603Z,84.10
2018-03-22T22:08:08.816Z,83.50
2018-03-22T22:10:37.057Z,84.10
2018-03-22T22:13:05.285Z,84.60
2018-03-22T22:15:33.521Z,85.40
2018-03-22T22:18:01.736Z,86.00
2018-03-22T22:20:29.970Z,86.20
2018-03-22T22:22:58.188Z,86.90
2018-03-22T22:25:27.192Z,87.10
2018-03-22T22:27:56.179Z,86.60
2018-03-22T22:30:25.192Z,86.70
2018-03-22T22:32:53.408Z,86.60
2018-03-22T22:35:21.620Z,87.10
2018-03-22T22:37:50.620Z,87.10
2018-03-22T22:40:18.837Z,87.10
2018-03-22T22:42:47.079Z,87.00
2018-03-22T22:45:15.292Z,87.20
2018-03-22T22:47:43.561Z,87.20
2018-03-22T22:50:11.753Z,87.20
2018-03-22T22:52:40.037Z,87.30
2018-03-22T22:55:08.211Z,87.30
2018-03-22T22:57:36.440Z,87.20
2018-03-22T23:00:04.652Z,87.50
2018-03-22T23:02:32.888Z,87.70
2018-03-22T23:05:01.099Z,88.10
2018-03-22T23:07:29.343Z,89.00
2018-03-22T23:09:57.557Z,88.20
2018-03-22T23:12:26.555Z,88.40
2018-03-22T23:14:55.544Z,88.80
2018-03-22T23:17:24.549Z,88.90
2018-03-22T23:19:52.772Z,88.80
2018-03-22T23:22:21.010Z,88.80
2018-03-22T23:24:49.223Z,89.00
2018-03-22T23:27:17.464Z,89.20
2018-03-22T23:29:45.688Z,89.50
2018-03-22T23:32:13.924Z,89.50
2018-03-22T23:34:42.139Z,90.30
2018-03-22T23:37:10.376Z,90.00
2018-03-22T23:39:38.592Z,90.10
2018-03-22T23:42:07.617Z,90.10
2018-03-22T23:44:35.825Z,90.10
2018-03-22T23:47:04.050Z,90.10
2018-03-22T23:49:32.292Z,90.40
2018-03-22T23:52:00.509Z,90.50
2018-03-22T23:54:28.751Z,90.50
2018-03-22T23:56:56.969Z,90.50
2018-03-22T23:59:25.203Z,90.70
